sensor_id;sensor_type;location;lat;lon;timestamp;pressure;altitude;pressure_sealevel;temperature;humidity
41218;BME280;26950;50.960;7.138;2023-03-26T00:00:19;99855.19;;;12.94;56.83
41218;BME280;26950;50.960;7.138;2023-03-26T00:02:46;99857.16;;;13.21;56.28
41218;BME280;26950;50.960;7.138;2023-03-26T00:05:12;99860.50;;;13.00;56.59
41218;BME280;26950;50.960;7.138;2023-03-26T00:07:39;99858.09;;;13.35;56.09
41218;BME280;26950;50.960;7.138;2023-03-26T00:10:08;99863.16;;;13.05;56.33
41218;BME280;26950;50.960;7.138;2023-03-26T00:12:35;99852.78;;;13.29;56.46
41218;BME280;26950;50.960;7.138;2023-03-26T00:15:01;99865.97;;;13.28;56.20
41218;BME280;26950;50.960;7.138;2023-03-26T00:17:28;99868.63;;;13.35;56.56
41218;BME280;26950;50.960;7.138;2023-03-26T00:19:55;99861.47;;;13.14;56.23
41218;BME280;26950;50.960;7.138;2023-03-26T00:22:21;99864.25;;;13.36;56.04
41218;BME280;26950;50.960;7.138;2023-03-26T00:24:48;99863.41;;;13.49;55.70
41218;BME280;26950;50.960;7.138;2023-03-26T00:27:16;99861.56;;;13.28;55.91
41218;BME280;26950;50.960;7.138;2023-03-26T00:29:43;99855.53;;;13.54;55.94
41218;BME280;26950;50.960;7.138;2023-03-26T00:32:12;99859.91;;;13.47;56.09
41218;BME280;26950;50.960;7.138;2023-03-26T00:34:39;99858.13;;;13.41;56.09
41218;BME280;26950;50.960;7.138;2023-03-26T00:37:06;99849.41;;;13.59;55.46
41218;BME280;26950;50.960;7.138;2023-03-26T00:39:33;99854.69;;;13.65;55.14
41218;BME280;26950;50.960;7.138;2023-03-26T00:42:01;99851.00;;;13.25;56.30
41218;BME280;26950;50.960;7.138;2023-03-26T00:44:32;99841.47;;;13.45;56.06
41218;BME280;26950;50.960;7.138;2023-03-26T00:46:59;99847.63;;;13.57;55.89
41218;BME280;26950;50.960;7.138;2023-03-26T00:49:26;99836.22;;;13.58;55.77
41218;BME280;26950;50.960;7.138;2023-03-26T00:51:55;99841.50;;;13.58;55.51
41218;BME280;26950;50.960;7.138;2023-03-26T00:54:21;99842.38;;;13.58;55.68
41218;BME280;26950;50.960;7.138;2023-03-26T00:56:47;99837.09;;;13.61;55.66
41218;BME280;26950;50.960;7.138;2023-03-26T00:59:14;99836.16;;;13.42;56.02
41218;BME280;26950;50.960;7.138;2023-03-26T01:01:42;99830.94;;;13.56;55.13
41218;BME280;26950;50.960;7.138;2023-03-26T01:04:27;99831.81;;;13.63;55.25
41218;BME280;26950;50.960;7.138;2023-03-26T01:06:55;99826.50;;;13.50;55.10
41218;BME280;26950;50.960;7.138;2023-03-26T01:09:27;99818.59;;;13.47;54.96
41218;BME280;26950;50.960;7.138;2023-03-26T01:11:57;99817.69;;;13.36;55.31
41218;BME280;26950;50.960;7.138;2023-03-26T01:14:25;99810.69;;;13.40;55.29
41218;BME280;26950;50.960;7.138;2023-03-26T01:16:56;99805.38;;;13.38;55.65
41218;BME280;26950;50.960;7.138;2023-03-26T01:19:27;99805.44;;;13.46;55.67
41218;BME280;26950;50.960;7.138;2023-03-26T01:21:55;99802.75;;;13.37;55.78
41218;BME280;26950;50.960;7.138;2023-03-26T01:24:23;99789.63;;;13.50;55.04
41218;BME280;26950;50.960;7.138;2023-03-26T01:29:52;99786.94;;;13.35;55.60
41218;BME280;26950;50.960;7.138;2023-03-26T01:32:47;99780.75;;;13.24;56.12
41218;BME280;26950;50.960;7.138;2023-03-26T01:35:23;99786.84;;;13.14;56.38
41218;BME280;26950;50.960;7.138;2023-03-26T01:38:02;99786.03;;;13.24;56.24
41218;BME280;26950;50.960;7.138;2023-03-26T01:40:40;99782.50;;;13.25;56.17
41218;BME280;26950;50.960;7.138;2023-03-26T01:43:15;99776.38;;;13.23;55.84
41218;BME280;26950;50.960;7.138;2023-03-26T01:45:46;99778.97;;;13.20;56.21
41218;BME280;26950;50.960;7.138;2023-03-26T01:48:15;99769.22;;;13.05;56.14
41218;BME280;26950;50.960;7.138;2023-03-26T01:50:41;99771.88;;;13.04;57.03
41218;BME280;26950;50.960;7.138;2023-03-26T01:53:13;99758.63;;;12.94;57.48
41218;BME280;26950;50.960;7.138;2023-03-26T01:55:50;99763.00;;;12.86;57.40
41218;BME280;26950;50.960;7.138;2023-03-26T01:58:26;99761.25;;;12.85;56.98
41218;BME280;26950;50.960;7.138;2023-03-26T02:01:05;99748.94;;;12.78;57.32
41218;BME280;26950;50.960;7.138;2023-03-26T02:03:39;99748.06;;;12.76;57.78
41218;BME280;26950;50.960;7.138;2023-03-26T02:06:13;99751.53;;;12.72;58.33
41218;BME280;26950;50.960;7.138;2023-03-26T02:08:45;99746.19;;;12.61;58.46
41218;BME280;26950;50.960;7.138;2023-03-26T02:11:17;99745.31;;;12.58;58.46
41218;BME280;26950;50.960;7.138;2023-03-26T02:13:44;99739.06;;;12.43;58.87
41218;BME280;26950;50.960;7.138;2023-03-26T02:16:13;99732.94;;;12.38;59.19
41218;BME280;26950;50.960;7.138;2023-03-26T02:18:41;99733.72;;;12.31;59.68
41218;BME280;26950;50.960;7.138;2023-03-26T02:21:09;99738.06;;;12.25;59.99
41218;BME280;26950;50.960;7.138;2023-03-26T02:23:36;99740.59;;;12.12;60.87
41218;BME280;26950;50.960;7.138;2023-03-26T02:26:05;99730.09;;;12.09;61.04
41218;BME280;26950;50.960;7.138;2023-03-26T02:28:33;99721.31;;;12.07;60.99
41218;BME280;26950;50.960;7.138;2023-03-26T02:31:00;99718.59;;;12.00;60.83
41218;BME280;26950;50.960;7.138;2023-03-26T02:33:27;99706.38;;;12.02;61.13
41218;BME280;26950;50.960;7.138;2023-03-26T02:35:54;99709.88;;;12.01;61.15
41218;BME280;26950;50.960;7.138;2023-03-26T02:38:23;99704.56;;;11.98;61.48
41218;BME280;26950;50.960;7.138;2023-03-26T02:40:51;99700.22;;;12.04;61.17
41218;BME280;26950;50.960;7.138;2023-03-26T02:43:18;99695.84;;;12.06;61.40
41218;BME280;26950;50.960;7.138;2023-03-26T02:45:46;99687.97;;;12.05;61.32
41218;BME280;26950;50.960;7.138;2023-03-26T02:48:12;99690.56;;;12.00;61.62
41218;BME280;26950;50.960;7.138;2023-03-26T02:50:40;99688.78;;;11.96;61.84
41218;BME280;26950;50.960;7.138;2023-03-26T02:53:07;99678.28;;;11.98;61.50
41218;BME280;26950;50.960;7.138;2023-03-26T02:55:33;99676.53;;;11.98;61.31
41218;BME280;26950;50.960;7.138;2023-03-26T02:58:00;99664.28;;;12.02;61.35
41218;BME280;26950;50.960;7.138;2023-03-26T03:00:26;99672.19;;;12.02;61.29
41218;BME280;26950;50.960;7.138;2023-03-26T03:02:54;99667.81;;;12.05;61.47
41218;BME280;26950;50.960;7.138;2023-03-26T03:05:22;99662.41;;;11.87;62.09
41218;BME280;26950;50.960;7.138;2023-03-26T03:07:50;99656.31;;;11.88;61.91
41218;BME280;26950;50.960;7.138;2023-03-26T03:10:23;99651.06;;;11.91;62.30
41218;BME280;26950;50.960;7.138;2023-03-26T03:12:50;99665.09;;;11.88;62.67
41218;BME280;26950;50.960;7.138;2023-03-26T03:15:16;99658.03;;;11.87;62.25
41218;BME280;26950;50.960;7.138;2023-03-26T03:17:43;99658.94;;;11.90;61.90
41218;BME280;26950;50.960;7.138;2023-03-26T03:20:11;99651.03;;;11.85;62.26
41218;BME280;26950;50.960;7.138;2023-03-26T03:22:38;99650.25;;;11.97;62.18
41218;BME280;26950;50.960;7.138;2023-03-26T03:25:05;99643.22;;;11.99;61.86
41218;BME280;26950;50.960;7.138;2023-03-26T03:27:33;99638.88;;;12.04;61.62
41218;BME280;26950;50.960;7.138;2023-03-26T03:30:04;99638.03;;;12.12;61.74
41218;BME280;26950;50.960;7.138;2023-03-26T03:32:30;99639.81;;;12.10;60.94
41218;BME280;26950;50.960;7.138;2023-03-26T03:34:57;99626.53;;;11.92;61.59
41218;BME280;26950;50.960;7.138;2023-03-26T03:37:25;99624.56;;;11.67;62.02
41218;BME280;26950;50.960;7.138;2023-03-26T03:39:51;99615.97;;;11.86;61.04
41218;BME280;26950;50.960;7.138;2023-03-26T03:42:18;99614.34;;;12.06;60.85
41218;BME280;26950;50.960;7.138;2023-03-26T03:44:44;99609.16;;;12.17;60.51
41218;BME280;26950;50.960;7.138;2023-03-26T03:47:11;99610.88;;;12.07;60.77
41218;BME280;26950;50.960;7.138;2023-03-26T03:49:39;99607.38;;;12.08;60.35
41218;BME280;26950;50.960;7.138;2023-03-26T03:52:06;99616.88;;;11.90;61.00
41218;BME280;26950;50.960;7.138;2023-03-26T03:54:34;99610.75;;;11.92;61.45
41218;BME280;26950;50.960;7.138;2023-03-26T03:57:00;99598.56;;;12.05;61.02
41218;BME280;26950;50.960;7.138;2023-03-26T03:59:27;99598.56;;;12.06;61.02
41218;BME280;26950;50.960;7.138;2023-03-26T04:01:54;99600.34;;;12.12;61.55
41218;BME280;26950;50.960;7.138;2023-03-26T04:04:20;99590.72;;;12.12;61.12
41218;BME280;26950;50.960;7.138;2023-03-26T04:06:49;99583.66;;;12.04;61.56
41218;BME280;26950;50.960;7.138;2023-03-26T04:09:18;99583.72;;;12.19;61.54
41218;BME280;26950;50.960;7.138;2023-03-26T04:11:46;99575.84;;;12.14;62.35
41218;BME280;26950;50.960;7.138;2023-03-26T04:14:14;99569.75;;;12.26;62.30
41218;BME280;26950;50.960;7.138;2023-03-26T04:16:41;99563.59;;;12.23;62.53
41218;BME280;26950;50.960;7.138;2023-03-26T04:19:07;99558.31;;;12.17;62.38
41218;BME280;26950;50.960;7.138;2023-03-26T04:21:34;99553.97;;;12.20;62.98
41218;BME280;26950;50.960;7.138;2023-03-26T04:24:02;99554.69;;;11.93;63.53
41218;BME280;26950;50.960;7.138;2023-03-26T04:26:29;99549.50;;;12.10;63.25
41218;BME280;26950;50.960;7.138;2023-03-26T04:29:03;99541.66;;;12.16;63.20
41218;BME280;26950;50.960;7.138;2023-03-26T04:31:31;99536.38;;;12.13;63.75
41218;BME280;26950;50.960;7.138;2023-03-26T04:34:04;99538.13;;;12.08;64.21
41218;BME280;26950;50.960;7.138;2023-03-26T04:36:32;99529.34;;;12.09;64.75
41218;BME280;26950;50.960;7.138;2023-03-26T04:39:01;99527.59;;;12.08;64.74
41218;BME280;26950;50.960;7.138;2023-03-26T04:41:29;99517.03;;;11.96;65.25
41218;BME280;26950;50.960;7.138;2023-03-26T04:43:56;99513.56;;;12.03;65.33
41218;BME280;26950;50.960;7.138;2023-03-26T04:46:27;99501.22;;;11.93;64.99
41218;BME280;26950;50.960;7.138;2023-03-26T04:48:58;99514.28;;;11.76;64.98
41218;BME280;26950;50.960;7.138;2023-03-26T04:51:27;99515.97;;;11.63;65.50
41218;BME280;26950;50.960;7.138;2023-03-26T04:54:00;99508.97;;;11.70;66.49
41218;BME280;26950;50.960;7.138;2023-03-26T04:56:33;99501.91;;;11.62;65.79
41218;BME280;26950;50.960;7.138;2023-03-26T04:59:02;99494.13;;;11.78;65.43
41218;BME280;26950;50.960;7.138;2023-03-26T05:01:30;99499.34;;;11.70;65.90
41218;BME280;26950;50.960;7.138;2023-03-26T05:03:57;99491.47;;;11.73;65.74
41218;BME280;26950;50.960;7.138;2023-03-26T05:06:24;99490.63;;;11.80;65.75
41218;BME280;26950;50.960;7.138;2023-03-26T05:08:52;99481.03;;;11.85;65.75
41218;BME280;26950;50.960;7.138;2023-03-26T05:11:18;99480.16;;;11.83;65.76
41218;BME280;26950;50.960;7.138;2023-03-26T05:13:45;99484.47;;;11.75;65.46
41218;BME280;26950;50.960;7.138;2023-03-26T05:16:12;99478.25;;;11.62;66.09
41218;BME280;26950;50.960;7.138;2023-03-26T05:18:40;99477.34;;;11.53;66.17
41218;BME280;26950;50.960;7.138;2023-03-26T05:21:06;99470.38;;;11.61;66.65
41218;BME280;26950;50.960;7.138;2023-03-26T05:23:33;99466.91;;;11.65;66.32
41218;BME280;26950;50.960;7.138;2023-03-26T05:26:00;99464.34;;;11.80;65.52
41218;BME280;26950;50.960;7.138;2023-03-26T05:28:26;99467.94;;;11.88;64.88
41218;BME280;26950;50.960;7.138;2023-03-26T05:30:53;99463.47;;;11.80;65.17
41218;BME280;26950;50.960;7.138;2023-03-26T05:33:19;99459.97;;;11.76;65.12
41218;BME280;26950;50.960;7.138;2023-03-26T05:35:58;99444.09;;;11.58;66.19
41218;BME280;26950;50.960;7.138;2023-03-26T05:38:25;99451.09;;;11.54;66.40
41218;BME280;26950;50.960;7.138;2023-03-26T05:40:57;99452.06;;;11.78;65.65
41218;BME280;26950;50.960;7.138;2023-03-26T05:43:23;99437.25;;;11.91;65.14
41218;BME280;26950;50.960;7.138;2023-03-26T05:45:50;99433.78;;;11.95;64.56
41218;BME280;26950;50.960;7.138;2023-03-26T05:48:16;99429.38;;;11.94;64.34
41218;BME280;26950;50.960;7.138;2023-03-26T05:50:43;99432.78;;;11.70;65.43
41218;BME280;26950;50.960;7.138;2023-03-26T05:53:11;99433.75;;;11.82;65.04
41218;BME280;26950;50.960;7.138;2023-03-26T05:55:38;99421.44;;;11.81;65.14
41218;BME280;26950;50.960;7.138;2023-03-26T05:58:04;99414.50;;;11.88;64.96
41218;BME280;26950;50.960;7.138;2023-03-26T06:00:31;99427.53;;;11.73;66.22
41218;BME280;26950;50.960;7.138;2023-03-26T06:03:02;99417.88;;;11.73;66.50
41218;BME280;26950;50.960;7.138;2023-03-26T06:05:30;99417.91;;;11.79;66.67
41218;BME280;26950;50.960;7.138;2023-03-26T06:07:59;99408.28;;;11.78;66.61
41218;BME280;26950;50.960;7.138;2023-03-26T06:10:27;99413.53;;;11.80;67.08
41218;BME280;26950;50.960;7.138;2023-03-26T06:12:54;99403.94;;;11.86;66.76
41218;BME280;26950;50.960;7.138;2023-03-26T06:15:21;99404.84;;;11.92;67.03
41218;BME280;26950;50.960;7.138;2023-03-26T06:17:51;99399.63;;;12.01;67.04
41218;BME280;26950;50.960;7.138;2023-03-26T06:20:17;99400.50;;;11.95;67.60
41218;BME280;26950;50.960;7.138;2023-03-26T06:22:44;99396.97;;;11.88;68.06
41218;BME280;26950;50.960;7.138;2023-03-26T06:25:13;99389.94;;;11.91;67.84
41218;BME280;26950;50.960;7.138;2023-03-26T06:27:41;99392.56;;;11.94;67.90
41218;BME280;26950;50.960;7.138;2023-03-26T06:30:08;99375.03;;;11.86;68.32
41218;BME280;26950;50.960;7.138;2023-03-26T06:32:35;99383.75;;;11.79;69.07
41218;BME280;26950;50.960;7.138;2023-03-26T06:35:01;99375.00;;;11.76;69.12
41218;BME280;26950;50.960;7.138;2023-03-26T06:37:28;99378.50;;;11.79;69.32
41218;BME280;26950;50.960;7.138;2023-03-26T06:39:55;99371.47;;;11.74;69.69
41218;BME280;26950;50.960;7.138;2023-03-26T06:42:21;99362.69;;;11.75;69.62
41218;BME280;26950;50.960;7.138;2023-03-26T06:44:49;99355.72;;;11.78;69.62
41218;BME280;26950;50.960;7.138;2023-03-26T06:47:16;99355.69;;;11.69;69.77
41218;BME280;26950;50.960;7.138;2023-03-26T06:49:42;99357.44;;;11.70;70.03
41218;BME280;26950;50.960;7.138;2023-03-26T06:52:09;99366.25;;;11.81;69.61
41218;BME280;26950;50.960;7.138;2023-03-26T06:54:35;99360.94;;;11.75;70.11
41218;BME280;26950;50.960;7.138;2023-03-26T06:57:02;99354.84;;;11.78;69.75
41218;BME280;26950;50.960;7.138;2023-03-26T06:59:31;99348.75;;;11.86;69.41
41218;BME280;26950;50.960;7.138;2023-03-26T07:01:59;99340.00;;;11.91;69.39
41218;BME280;26950;50.960;7.138;2023-03-26T07:04:26;99347.03;;;12.01;69.31
41218;BME280;26950;50.960;7.138;2023-03-26T07:06:52;99334.72;;;11.87;69.94
41218;BME280;26950;50.960;7.138;2023-03-26T07:09:19;99332.06;;;11.77;70.13
41218;BME280;26950;50.960;7.138;2023-03-26T07:11:45;99336.41;;;11.75;69.89
41218;BME280;26950;50.960;7.138;2023-03-26T07:14:12;99328.63;;;11.90;69.72
41218;BME280;26950;50.960;7.138;2023-03-26T07:16:43;99327.75;;;11.99;69.54
41218;BME280;26950;50.960;7.138;2023-03-26T07:19:11;99322.47;;;11.86;69.45
41218;BME280;26950;50.960;7.138;2023-03-26T07:21:38;99331.16;;;11.73;70.71
41218;BME280;26950;50.960;7.138;2023-03-26T07:24:07;99328.53;;;11.72;70.97
41218;BME280;26950;50.960;7.138;2023-03-26T07:26:40;99324.16;;;11.69;71.04
41218;BME280;26950;50.960;7.138;2023-03-26T07:29:17;99321.53;;;11.72;71.24
41218;BME280;26950;50.960;7.138;2023-03-26T07:31:52;99320.63;;;11.58;71.64
41218;BME280;26950;50.960;7.138;2023-03-26T07:34:35;99317.16;;;11.74;70.99
41218;BME280;26950;50.960;7.138;2023-03-26T07:37:12;99322.50;;;11.88;70.78
41218;BME280;26950;50.960;7.138;2023-03-26T07:39:45;99311.97;;;11.90;70.76
41218;BME280;26950;50.960;7.138;2023-03-26T07:42:25;99304.97;;;11.98;70.72
41218;BME280;26950;50.960;7.138;2023-03-26T07:44:58;99304.94;;;11.85;71.12
41218;BME280;26950;50.960;7.138;2023-03-26T07:47:31;99296.19;;;11.83;70.53
41218;BME280;26950;50.960;7.138;2023-03-26T07:50:00;99292.66;;;11.87;71.15
41218;BME280;26950;50.960;7.138;2023-03-26T07:52:27;99293.59;;;11.96;71.10
41218;BME280;26950;50.960;7.138;2023-03-26T07:54:54;99279.44;;;11.52;72.12
41218;BME280;26950;50.960;7.138;2023-03-26T07:57:32;99290.03;;;11.86;71.07
41218;BME280;26950;50.960;7.138;2023-03-26T08:00:02;99277.81;;;11.96;71.06
41218;BME280;26950;50.960;7.138;2023-03-26T08:02:51;99287.38;;;11.69;71.99
41218;BME280;26950;50.960;7.138;2023-03-26T08:05:26;99273.38;;;11.76;71.80
41218;BME280;26950;50.960;7.138;2023-03-26T08:08:01;99283.06;;;11.91;71.03
41218;BME280;26950;50.960;7.138;2023-03-26T08:10:36;99274.28;;;11.97;70.93
41218;BME280;26950;50.960;7.138;2023-03-26T08:13:15;99279.47;;;11.60;72.21
41218;BME280;26950;50.960;7.138;2023-03-26T08:15:51;99269.03;;;11.83;71.46
41218;BME280;26950;50.960;7.138;2023-03-26T08:18:30;99268.97;;;11.72;71.59
41218;BME280;26950;50.960;7.138;2023-03-26T08:21:05;99272.47;;;11.68;72.13
41218;BME280;26950;50.960;7.138;2023-03-26T08:23:36;99268.06;;;11.53;73.16
41218;BME280;26950;50.960;7.138;2023-03-26T08:26:08;99269.88;;;11.76;72.45
41218;BME280;26950;50.960;7.138;2023-03-26T08:28:45;99267.22;;;11.71;72.30
41218;BME280;26950;50.960;7.138;2023-03-26T08:31:17;99266.28;;;11.42;73.55
41218;BME280;26950;50.960;7.138;2023-03-26T08:33:46;99261.94;;;11.59;73.23
41218;BME280;26950;50.960;7.138;2023-03-26T08:36:15;99266.22;;;11.23;74.02
41218;BME280;26950;50.960;7.138;2023-03-26T08:38:42;99262.75;;;11.33;73.71
41218;BME280;26950;50.960;7.138;2023-03-26T08:41:46;99267.22;;;11.67;72.89
41218;BME280;26950;50.960;7.138;2023-03-26T08:44:47;99255.81;;;11.57;72.65
41218;BME280;26950;50.960;7.138;2023-03-26T08:47:40;99254.88;;;11.35;72.68
41218;BME280;26950;50.960;7.138;2023-03-26T08:50:32;99254.00;;;11.34;72.94
41218;BME280;26950;50.960;7.138;2023-03-26T08:53:33;99257.41;;;11.11;73.71
41218;BME280;26950;50.960;7.138;2023-03-26T08:56:07;99255.72;;;11.23;73.71
41218;BME280;26950;50.960;7.138;2023-03-26T08:59:09;99254.72;;;10.91;73.94
41218;BME280;26950;50.960;7.138;2023-03-26T09:02:00;99253.06;;;11.16;72.56
41218;BME280;26950;50.960;7.138;2023-03-26T09:05:13;99246.16;;;11.41;71.46
41218;BME280;26950;50.960;7.138;2023-03-26T09:08:04;99246.19;;;11.68;70.76
41218;BME280;26950;50.960;7.138;2023-03-26T09:10:51;99251.41;;;11.56;69.10
41218;BME280;26950;50.960;7.138;2023-03-26T09:13:57;99238.25;;;11.33;69.51
41218;BME280;26950;50.960;7.138;2023-03-26T09:17:07;99247.94;;;11.52;69.73
41218;BME280;26950;50.960;7.138;2023-03-26T09:26:03;99235.13;;;10.27;73.52
41218;BME280;26950;50.960;7.138;2023-03-26T09:29:19;99228.84;;;10.09;73.97
41218;BME280;26950;50.960;7.138;2023-03-26T09:32:20;99222.81;;;10.20;74.15
41218;BME280;26950;50.960;7.138;2023-03-26T09:35:04;99215.97;;;10.39;73.06
41218;BME280;26950;50.960;7.138;2023-03-26T09:37:46;99207.31;;;10.51;72.25
41218;BME280;26950;50.960;7.138;2023-03-26T09:40:18;99205.63;;;10.68;70.13
41218;BME280;26950;50.960;7.138;2023-03-26T09:42:53;99203.16;;;11.00;70.97
41218;BME280;26950;50.960;7.138;2023-03-26T09:45:33;99190.00;;;10.99;70.43
41218;BME280;26950;50.960;7.138;2023-03-26T09:48:43;99186.56;;;11.14;70.26
41218;BME280;26950;50.960;7.138;2023-03-26T09:51:25;99185.69;;;11.13;70.20
41218;BME280;26950;50.960;7.138;2023-03-26T09:54:09;99183.97;;;11.27;69.77
41218;BME280;26950;50.960;7.138;2023-03-26T09:56:47;99166.41;;;11.08;69.70
41218;BME280;26950;50.960;7.138;2023-03-26T10:02:39;99164.72;;;11.27;69.51
41218;BME280;26950;50.960;7.138;2023-03-26T10:05:21;99168.22;;;11.33;69.40
41218;BME280;26950;50.960;7.138;2023-03-26T10:08:12;99156.81;;;11.21;69.64
41218;BME280;26950;50.960;7.138;2023-03-26T10:10:49;99155.97;;;11.26;69.52
41218;BME280;26950;50.960;7.138;2023-03-26T10:13:25;99155.94;;;11.29;69.30
41218;BME280;26950;50.960;7.138;2023-03-26T10:16:04;99153.31;;;11.28;69.82
41218;BME280;26950;50.960;7.138;2023-03-26T10:18:43;99138.44;;;11.24;70.75
41218;BME280;26950;50.960;7.138;2023-03-26T10:21:18;99138.47;;;11.45;69.89
41218;BME280;26950;50.960;7.138;2023-03-26T10:24:03;99139.34;;;11.47;69.41
41218;BME280;26950;50.960;7.138;2023-03-26T10:26:50;99140.22;;;11.39;69.60
41218;BME280;26950;50.960;7.138;2023-03-26T10:29:32;99127.09;;;11.45;69.74
41218;BME280;26950;50.960;7.138;2023-03-26T10:32:12;99129.72;;;11.63;69.84
41218;BME280;26950;50.960;7.138;2023-03-26T10:34:53;99118.31;;;11.56;68.92
41218;BME280;26950;50.960;7.138;2023-03-26T10:37:29;99120.06;;;11.48;69.41
41218;BME280;26950;50.960;7.138;2023-03-26T10:40:07;99113.97;;;11.63;69.07
41218;BME280;26950;50.960;7.138;2023-03-26T10:42:54;99111.31;;;11.68;69.97
41218;BME280;26950;50.960;7.138;2023-03-26T10:45:32;99101.72;;;11.88;69.51
41218;BME280;26950;50.960;7.138;2023-03-26T10:48:22;99104.31;;;12.02;68.18
41218;BME280;26950;50.960;7.138;2023-03-26T10:53:48;99092.94;;;11.84;68.97
41218;BME280;26950;50.960;7.138;2023-03-26T10:56:21;99092.88;;;12.06;68.29
41218;BME280;26950;50.960;7.138;2023-03-26T10:58:48;99096.44;;;11.85;69.57
41218;BME280;26950;50.960;7.138;2023-03-26T11:01:21;99090.28;;;11.87;69.32
41218;BME280;26950;50.960;7.138;2023-03-26T11:03:51;99093.72;;;12.22;68.61
41218;BME280;26950;50.960;7.138;2023-03-26T11:06:29;99091.03;;;12.38;68.47
41218;BME280;26950;50.960;7.138;2023-03-26T11:09:02;99075.09;;;12.72;67.77
41218;BME280;26950;50.960;7.138;2023-03-26T11:11:39;99075.09;;;12.69;66.44
41218;BME280;26950;50.960;7.138;2023-03-26T11:14:12;99077.16;;;11.95;70.05
41218;BME280;26950;50.960;7.138;2023-03-26T11:16:51;99077.09;;;12.20;69.91
41218;BME280;26950;50.960;7.138;2023-03-26T11:19:26;99073.50;;;12.31;68.84
41218;BME280;26950;50.960;7.138;2023-03-26T11:21:59;99071.81;;;12.18;69.53
41218;BME280;26950;50.960;7.138;2023-03-26T11:24:48;99067.50;;;12.02;70.99
41218;BME280;26950;50.960;7.138;2023-03-26T11:27:26;99064.78;;;12.28;68.15
41218;BME280;26950;50.960;7.138;2023-03-26T11:30:05;99060.41;;;12.27;69.34
41218;BME280;26950;50.960;7.138;2023-03-26T11:32:40;99062.06;;;12.43;69.56
41218;BME280;26950;50.960;7.138;2023-03-26T11:35:16;99055.03;;;12.51;69.54
41218;BME280;26950;50.960;7.138;2023-03-26T11:37:47;99054.16;;;12.52;69.89
41218;BME280;26950;50.960;7.138;2023-03-26T11:40:19;99059.28;;;12.69;69.98
41218;BME280;26950;50.960;7.138;2023-03-26T11:42:49;99061.09;;;12.61;68.30
41218;BME280;26950;50.960;7.138;2023-03-26T11:45:21;99056.75;;;12.54;68.42
41218;BME280;26950;50.960;7.138;2023-03-26T11:47:51;99046.09;;;12.75;68.56
41218;BME280;26950;50.960;7.138;2023-03-26T11:50:23;99054.94;;;12.62;68.59
41218;BME280;26950;50.960;7.138;2023-03-26T11:52:51;99052.06;;;13.00;69.13
41218;BME280;26950;50.960;7.138;2023-03-26T11:55:19;99053.84;;;13.03;69.60
41218;BME280;26950;50.960;7.138;2023-03-26T11:57:52;99056.59;;;12.84;69.77
41218;BME280;26950;50.960;7.138;2023-03-26T12:00:20;99059.63;;;11.93;70.35
41218;BME280;26950;50.960;7.138;2023-03-26T12:02:55;99059.31;;;12.66;70.08
41218;BME280;26950;50.960;7.138;2023-03-26T12:05:24;99057.56;;;12.66;68.81
41218;BME280;26950;50.960;7.138;2023-03-26T12:07:53;99061.03;;;12.73;70.11
41218;BME280;26950;50.960;7.138;2023-03-26T12:10:26;99058.50;;;12.58;69.92
41218;BME280;26950;50.960;7.138;2023-03-26T12:12:57;99047.88;;;12.73;68.73
41218;BME280;26950;50.960;7.138;2023-03-26T12:15:25;99047.69;;;12.99;68.81
41218;BME280;26950;50.960;7.138;2023-03-26T12:17:54;99047.56;;;13.17;69.00
41218;BME280;26950;50.960;7.138;2023-03-26T12:20:34;99047.53;;;13.27;67.71
41218;BME280;26950;50.960;7.138;2023-03-26T12:23:04;99049.28;;;13.26;67.42
41218;BME280;26950;50.960;7.138;2023-03-26T12:25:33;99043.09;;;13.30;67.77
41218;BME280;26950;50.960;7.138;2023-03-26T12:28:01;99041.28;;;13.38;68.03
41218;BME280;26950;50.960;7.138;2023-03-26T12:30:29;99046.50;;;13.44;68.63
41218;BME280;26950;50.960;7.138;2023-03-26T12:32:59;99041.97;;;13.57;68.85
41218;BME280;26950;50.960;7.138;2023-03-26T12:35:29;99048.97;;;13.61;68.27
41218;BME280;26950;50.960;7.138;2023-03-26T12:41:07;99058.13;;;13.20;67.60
41218;BME280;26950;50.960;7.138;2023-03-26T12:43:39;99060.66;;;13.31;68.50
41218;BME280;26950;50.960;7.138;2023-03-26T12:46:21;99043.75;;;13.57;67.40
41218;BME280;26950;50.960;7.138;2023-03-26T12:48:50;99049.13;;;13.46;66.22
41218;BME280;26950;50.960;7.138;2023-03-26T12:51:23;99046.19;;;13.78;63.96
41218;BME280;26950;50.960;7.138;2023-03-26T12:54:05;99049.72;;;13.77;64.05
41218;BME280;26950;50.960;7.138;2023-03-26T12:56:37;99043.06;;;14.22;63.97
41218;BME280;26950;50.960;7.138;2023-03-26T12:59:16;99049.94;;;14.34;64.41
41218;BME280;26950;50.960;7.138;2023-03-26T13:01:52;99047.91;;;14.59;62.19
41218;BME280;26950;50.960;7.138;2023-03-26T13:04:42;99052.16;;;14.68;62.29
41218;BME280;26950;50.960;7.138;2023-03-26T13:07:16;99049.31;;;14.81;60.98
41218;BME280;26950;50.960;7.138;2023-03-26T13:12:46;99054.97;;;14.55;62.75
41218;BME280;26950;50.960;7.138;2023-03-26T13:15:20;99049.38;;;14.77;62.38
41218;BME280;26950;50.960;7.138;2023-03-26T13:17:59;99055.41;;;14.87;63.66
41218;BME280;26950;50.960;7.138;2023-03-26T13:20:43;99058.00;;;14.91;63.18
41218;BME280;26950;50.960;7.138;2023-03-26T13:23:24;99068.47;;;14.97;63.95
41218;BME280;26950;50.960;7.138;2023-03-26T13:25:58;99059.16;;;14.72;64.29
41218;BME280;26950;50.960;7.138;2023-03-26T13:28:34;99065.72;;;14.37;64.40
41218;BME280;26950;50.960;7.138;2023-03-26T13:31:09;99059.72;;;14.27;63.93
41218;BME280;26950;50.960;7.138;2023-03-26T13:33:46;99059.00;;;14.12;64.88
41218;BME280;26950;50.960;7.138;2023-03-26T13:36:18;99060.59;;;14.25;65.05
41218;BME280;26950;50.960;7.138;2023-03-26T13:38:54;99063.56;;;13.94;65.69
41218;BME280;26950;50.960;7.138;2023-03-26T13:41:36;99060.25;;;13.77;66.59
41218;BME280;26950;50.960;7.138;2023-03-26T13:44:14;99052.63;;;13.45;66.58
41218;BME280;26950;50.960;7.138;2023-03-26T13:46:51;99063.41;;;13.14;66.97
41218;BME280;26950;50.960;7.138;2023-03-26T13:49:28;99068.59;;;13.28;66.35